Calgary Springbank Airport
CYBW : now visible

Airfield :











YOU CAN JOIN US ON...

 
LOGIN :

Register | Disclaimer

   EN    FR    IT 

 









Legend :    VFR   Marginal VFR   IFR   Intensive IFR   Very Intensive IFR
Visi :
Ceiling :
>= 8 km
>= 3000ft
5 to 8 km
1000 to 3000 ft
1500m to 5 km
500 to 1000 ft
800 to 1500m
200 to 500 ft
< 800m
< 200 ft
Symbols :   Thunderstorms  Fog  Heavy snow  Heavy precipitations  Wind > 20 kt






- Airport Elevation : 3937 ft
- IATA code : YBW


CYBW - Calgary Springbank

CURRENT METAR :
  • 211932Z AUTO 01015KT 2 1/2SM -SN FEW015 BKN025 OVC033 M04/M07 A3009 RMK VIS VRB 1 1/2-3 SLP252

EXPIRED METARs :
  • 211900Z AUTO 36015KT 1SM R35/5500FT/N -SN VV015 M04/M07 A3008 RMK SLP249
  • 211810Z AUTO 36013G18KT 2SM -SN FEW017 BKN023 OVC034 M04/M07 A3006 RMK VIS VRB 1 1/4-3 SLP244
  • 211800Z AUTO 36012G19KT 3SM -SN FEW017 SCT023 OVC034 M04/M07 A3006 RMK SLP243
  • 211748Z AUTO 36014KT 5SM -SN SCT015 OVC034 M05/M07 A3006 RMK SLP245
  • 211737Z AUTO 36011G16KT 8SM -SN BKN015 OVC034 M04/M07 A3005 RMK SLP242
  • 211725Z AUTO 36012G17KT 3SM -SN BKN015 BKN026 OVC034 M05/M07 A3004 RMK SLP240
  • 211713Z AUTO 36013KT 2SM -SN BKN015 OVC026 M05/M07 A3004 RMK VIS VRB 1 1/4-2 1/2 SLP239
  • 211701Z AUTO 36013KT 2 1/2SM -SN SCT015 BKN030 OVC037 M05/M07 A3003 RMK SLP237

TAF TAF CYBW
Valid from the 21 at 18:00 until the 22 at 04:00 UTC


211739Z 2118/2204 36012KT 6SM -SN SCT015 OVC025
TEMPO 2118/2122 11/2SM -SN VV012
FM212200 02012KT P6SM -SN BKN025 OVC040
TEMPO 2122/2204 4SM -SN FEW008 OVC020 RMK FCST BASED ON AUTO OBS. NXT FCST BY 220000Z
CZEG FIR / North America



MET'MAP, your aeronautical weather chart ! - Copyright ORBIFLY December 2007 - Disclaimer

ORBIFLY MET'MAP TEAM :

Programming & Development : Alexandra Zaïnal
Concept & original design : Baudouin d'Aumeries
Assistance for programming : Marc-Olivier Méhu
Technical & hardware support : Manuel Goepfert

Contact : metmap@orbifly.com




SOURCES & CREDITS :

   NOAA       Earth
Advisory